Página principal
METAR-TAF:

METAR-TAF

Aeroportos :

Xian, China

Aeroporto Internacional de Xi'an Xianyang

latitude: 34-26N, longitude: 108-45E, altura: 479 m

Observação actual do tempo

O boletim foi feito há 1 hora e 18 minutos, às 01:00 UTC
Vento 6 kt de es-nordeste, variando entre nor-nordeste e este
Temperatura 14°C
Humidade 47%
Pressão 1019 hPa
Visibilidade: 6000 m

METAR: ZLXY 280100Z 07003MPS 030V100 6000 NSC 14/03 Q1019 NOSIG

Hora: 10:18 (02:18 UTC)

Previsão

O boletim foi feito há 7 horas e 10 minutos, às 19:08 UTC
Previsão válida de 28 às 00 UTC a 28 às 24 UTC
Vento 6 kt de es-nordeste
Visibilidade: 4000 m
bruma

TAF: ZLXY 271908Z 2800/2824 06003MPS 4000 HZ NSC TX20/2808Z TN06/2821Z

Observações e previsões do tempo de mais de 4000 aeroportos (mensagens METAR e TAF).

As estações disponíveis são os pontos amarelos e vermelhos sobre o mapa.

Mova o rato sobre o mapa para ver o nome da estação.

Depois clique no ponto para visualizar as observações e previsões meteorológicas.

Para alterar o mapa : clique nos botões verdes com uma cruz preta para aumentar o zoom; no botão verde com uma pitada de zoom; ou nas setas verdes para mapas adjacentes.


METAR-TAF: